Repto Brisas de Rio Hondo, Puerto Rico
Current Conditions -  °F | °C
As of 4:50 PM on Sunday 23 Nov 2014 (Local Time) from TJBQ Reporting Station
Clear Clear  
Wind Chill: 82°   Ceiling: Unl
Heat Index: 87°   Visibility: 10mi
Dew Point: 72°   Wind: 18mph
Humidity: 70%   Direction: 100°E
Pressure: 29.97"   Gusts: 24mph
Location:  18.2038°N, 67.1453°W
Report Text: TJBQ 232050Z 10016G21KT 10SM SKC 28/22 A2997 RMK RWY 08 ATIS O
Loading
Personal Weather Stations






























Interactive Weather Map New forecast layout! Learn more

10-Day Weather Forecast

Advertisements
Track Severe Weather on mobile